Terminal Aerodrome Forecast
Issued by NWS Austin/San Antonio, TX

Home | Current Version | Previous Version | Text Only | Print | Product List | Glossary On
Versions: 1 2 3 4 5 6 7 8 9 10 11 12 13 14 15 16
000
FTUS44 KEWX 261200 AAA
TAFAUS
TAF AMD
KAUS 261221Z 2612/2718 18008KT P6SM FEW015
      TEMPO 2612/2614 3SM BR
     FM261900 18014KT P6SM FEW060
     FM270500 16008KT P6SM FEW040
     FM271000 18007KT P6SM BKN010
     FM271400 18010KT P6SM SCT025=

USA.gov is the U.S. government's official web portal to all federal, state and local government web resources and services.